sensor_id;sensor_type;location;lat;lon;timestamp;pressure;altitude;pressure_sealevel;temperature;humidity
23172;BME280;11754;42.664;23.594;2024-02-04T00:00:28;95844.47;;;1.40;69.87
23172;BME280;11754;42.664;23.594;2024-02-04T00:02:53;95849.78;;;1.51;69.51
23172;BME280;11754;42.664;23.594;2024-02-04T00:05:19;95846.34;;;1.38;70.32
23172;BME280;11754;42.664;23.594;2024-02-04T00:07:44;95842.53;;;1.56;69.84
23172;BME280;11754;42.664;23.594;2024-02-04T00:10:10;95836.47;;;1.43;69.80
23172;BME280;11754;42.664;23.594;2024-02-04T00:12:36;95841.19;;;1.63;68.98
23172;BME280;11754;42.664;23.594;2024-02-04T00:15:01;95837.00;;;1.48;69.24
23172;BME280;11754;42.664;23.594;2024-02-04T00:17:29;95840.53;;;1.47;69.50
23172;BME280;11754;42.664;23.594;2024-02-04T00:19:56;95842.06;;;1.37;69.82
23172;BME280;11754;42.664;23.594;2024-02-04T00:22:22;95841.25;;;1.49;69.48
23172;BME280;11754;42.664;23.594;2024-02-04T00:24:47;95844.69;;;1.50;69.50
23172;BME280;11754;42.664;23.594;2024-02-04T00:27:12;95834.88;;;1.28;70.44
23172;BME280;11754;42.664;23.594;2024-02-04T00:29:38;95845.72;;;1.34;70.14
23172;BME280;11754;42.664;23.594;2024-02-04T00:32:03;95844.56;;;1.51;69.81
23172;BME280;11754;42.664;23.594;2024-02-04T00:34:28;95848.44;;;1.46;70.63
23172;BME280;11754;42.664;23.594;2024-02-04T00:36:54;95839.47;;;1.37;71.21
23172;BME280;11754;42.664;23.594;2024-02-04T00:39:19;95841.25;;;1.49;70.89
23172;BME280;11754;42.664;23.594;2024-02-04T00:41:44;95853.88;;;1.55;70.45
23172;BME280;11754;42.664;23.594;2024-02-04T00:44:10;95848.56;;;1.70;70.23
23172;BME280;11754;42.664;23.594;2024-02-04T00:46:35;95842.63;;;1.67;70.36
23172;BME280;11754;42.664;23.594;2024-02-04T00:49:00;95837.44;;;1.67;70.77
23172;BME280;11754;42.664;23.594;2024-02-04T00:51:25;95832.66;;;1.74;70.22
23172;BME280;11754;42.664;23.594;2024-02-04T00:53:51;95833.25;;;1.90;69.78
23172;BME280;11754;42.664;23.594;2024-02-04T00:56:18;95831.72;;;1.88;69.55
23172;BME280;11754;42.664;23.594;2024-02-04T00:58:43;95829.72;;;2.04;68.98
23172;BME280;11754;42.664;23.594;2024-02-04T01:01:08;95839.06;;;2.20;68.74
23172;BME280;11754;42.664;23.594;2024-02-04T01:03:34;95838.03;;;2.35;67.70
23172;BME280;11754;42.664;23.594;2024-02-04T01:05:59;95836.13;;;2.37;67.99
23172;BME280;11754;42.664;23.594;2024-02-04T01:08:25;95832.09;;;2.33;67.35
23172;BME280;11754;42.664;23.594;2024-02-04T01:10:50;95832.41;;;2.28;68.04
23172;BME280;11754;42.664;23.594;2024-02-04T01:13:16;95840.50;;;2.36;67.80
23172;BME280;11754;42.664;23.594;2024-02-04T01:15:41;95835.09;;;2.39;67.80
23172;BME280;11754;42.664;23.594;2024-02-04T01:18:07;95836.13;;;2.50;67.47
23172;BME280;11754;42.664;23.594;2024-02-04T01:20:32;95828.78;;;2.31;67.70
23172;BME280;11754;42.664;23.594;2024-02-04T01:22:57;95828.25;;;2.26;68.05
23172;BME280;11754;42.664;23.594;2024-02-04T01:25:23;95834.91;;;2.30;68.36
23172;BME280;11754;42.664;23.594;2024-02-04T01:27:48;95838.66;;;2.26;68.38
23172;BME280;11754;42.664;23.594;2024-02-04T01:30:13;95832.22;;;2.19;69.12
23172;BME280;11754;42.664;23.594;2024-02-04T01:32:39;95820.16;;;2.17;69.12
23172;BME280;11754;42.664;23.594;2024-02-04T01:35:04;95829.31;;;2.10;70.29
23172;BME280;11754;42.664;23.594;2024-02-04T01:37:29;95823.16;;;2.11;70.95
23172;BME280;11754;42.664;23.594;2024-02-04T01:39:55;95822.00;;;2.15;70.76
23172;BME280;11754;42.664;23.594;2024-02-04T01:42:20;95820.78;;;2.08;71.44
23172;BME280;11754;42.664;23.594;2024-02-04T01:44:46;95818.69;;;2.13;71.76
23172;BME280;11754;42.664;23.594;2024-02-04T01:47:11;95818.38;;;2.18;71.76
23172;BME280;11754;42.664;23.594;2024-02-04T01:49:37;95806.34;;;2.41;70.40
23172;BME280;11754;42.664;23.594;2024-02-04T01:52:03;95805.25;;;2.20;72.24
23172;BME280;11754;42.664;23.594;2024-02-04T01:54:29;95807.22;;;2.29;71.40
23172;BME280;11754;42.664;23.594;2024-02-04T01:56:55;95803.69;;;2.17;71.59
23172;BME280;11754;42.664;23.594;2024-02-04T01:59:23;95806.94;;;2.21;70.90
23172;BME280;11754;42.664;23.594;2024-02-04T02:01:53;95808.47;;;2.23;72.52
23172;BME280;11754;42.664;23.594;2024-02-04T02:04:18;95810.31;;;2.34;71.68
23172;BME280;11754;42.664;23.594;2024-02-04T02:06:45;95806.34;;;2.41;71.01
23172;BME280;11754;42.664;23.594;2024-02-04T02:09:11;95801.59;;;2.35;70.62
23172;BME280;11754;42.664;23.594;2024-02-04T02:11:43;95803.25;;;2.36;71.27
23172;BME280;11754;42.664;23.594;2024-02-04T02:14:13;95791.25;;;2.33;72.73
23172;BME280;11754;42.664;23.594;2024-02-04T02:16:39;95796.31;;;2.60;71.77
23172;BME280;11754;42.664;23.594;2024-02-04T02:26:52;95775.03;;;3.26;70.93
23172;BME280;11754;42.664;23.594;2024-02-04T02:29:18;95782.41;;;3.32;70.83
23172;BME280;11754;42.664;23.594;2024-02-04T02:31:43;95786.22;;;3.39;70.68
23172;BME280;11754;42.664;23.594;2024-02-04T02:34:09;95789.19;;;3.10;72.02
23172;BME280;11754;42.664;23.594;2024-02-04T02:36:45;95787.97;;;3.03;72.74
23172;BME280;11754;42.664;23.594;2024-02-04T02:39:45;95790.13;;;3.09;72.80
23172;BME280;11754;42.664;23.594;2024-02-04T02:42:03;95784.31;;;3.06;73.89
23172;BME280;11754;42.664;23.594;2024-02-04T02:44:29;95780.59;;;3.21;73.98
23172;BME280;11754;42.664;23.594;2024-02-04T02:46:55;95785.47;;;3.37;72.75
23172;BME280;11754;42.664;23.594;2024-02-04T02:49:22;95785.06;;;3.66;71.80
23172;BME280;11754;42.664;23.594;2024-02-04T02:51:47;95781.75;;;3.75;71.91
23172;BME280;11754;42.664;23.594;2024-02-04T02:54:13;95780.59;;;3.90;71.27
23172;BME280;11754;42.664;23.594;2024-02-04T02:56:38;95777.25;;;4.10;70.20
23172;BME280;11754;42.664;23.594;2024-02-04T02:59:03;95782.22;;;4.25;69.87
23172;BME280;11754;42.664;23.594;2024-02-04T03:01:29;95779.38;;;4.39;68.71
23172;BME280;11754;42.664;23.594;2024-02-04T03:03:54;95768.34;;;4.36;69.29
23172;BME280;11754;42.664;23.594;2024-02-04T03:06:19;95770.09;;;4.46;68.66
23172;BME280;11754;42.664;23.594;2024-02-04T03:08:44;95767.69;;;4.66;68.60
23172;BME280;11754;42.664;23.594;2024-02-04T03:11:10;95772.69;;;4.57;68.54
23172;BME280;11754;42.664;23.594;2024-02-04T03:13:37;95771.38;;;4.63;68.47
23172;BME280;11754;42.664;23.594;2024-02-04T03:16:03;95777.38;;;4.31;70.05
23172;BME280;11754;42.664;23.594;2024-02-04T03:18:28;95771.81;;;3.91;72.56
23172;BME280;11754;42.664;23.594;2024-02-04T03:20:53;95775.25;;;3.80;75.58
23172;BME280;11754;42.664;23.594;2024-02-04T03:23:19;95768.09;;;3.71;76.04
23172;BME280;11754;42.664;23.594;2024-02-04T03:25:44;95767.03;;;3.63;75.91
23172;BME280;11754;42.664;23.594;2024-02-04T03:28:09;95765.63;;;3.70;75.69
23172;BME280;11754;42.664;23.594;2024-02-04T03:30:35;95760.41;;;3.92;75.19
23172;BME280;11754;42.664;23.594;2024-02-04T03:33:00;95759.94;;;4.21;74.73
23172;BME280;11754;42.664;23.594;2024-02-04T03:35:25;95760.16;;;4.40;72.91
23172;BME280;11754;42.664;23.594;2024-02-04T03:37:51;95756.44;;;4.54;72.73
23172;BME280;11754;42.664;23.594;2024-02-04T03:40:16;95760.44;;;4.69;72.00
23172;BME280;11754;42.664;23.594;2024-02-04T03:42:44;95755.28;;;4.79;71.07
23172;BME280;11754;42.664;23.594;2024-02-04T03:45:09;95751.22;;;4.86;70.62
23172;BME280;11754;42.664;23.594;2024-02-04T03:47:35;95755.00;;;4.93;69.45
23172;BME280;11754;42.664;23.594;2024-02-04T03:50:00;95742.44;;;4.87;70.21
23172;BME280;11754;42.664;23.594;2024-02-04T03:52:25;95745.47;;;5.03;69.96
23172;BME280;11754;42.664;23.594;2024-02-04T03:54:51;95740.88;;;4.96;71.01
23172;BME280;11754;42.664;23.594;2024-02-04T03:57:16;95733.47;;;5.01;71.48
23172;BME280;11754;42.664;23.594;2024-02-04T03:59:44;95737.63;;;5.03;71.94
23172;BME280;11754;42.664;23.594;2024-02-04T04:02:10;95731.22;;;4.96;71.94
23172;BME280;11754;42.664;23.594;2024-02-04T04:04:35;95729.81;;;4.92;72.32
23172;BME280;11754;42.664;23.594;2024-02-04T04:07:00;95732.69;;;4.89;72.96
23172;BME280;11754;42.664;23.594;2024-02-04T04:09:25;95729.59;;;4.95;72.39
23172;BME280;11754;42.664;23.594;2024-02-04T04:11:51;95728.19;;;4.91;72.74
23172;BME280;11754;42.664;23.594;2024-02-04T04:14:16;95732.25;;;4.84;73.96
23172;BME280;11754;42.664;23.594;2024-02-04T04:16:41;95735.09;;;4.81;74.66
23172;BME280;11754;42.664;23.594;2024-02-04T04:19:07;95742.94;;;4.81;74.65
23172;BME280;11754;42.664;23.594;2024-02-04T04:21:32;95734.97;;;4.82;75.00
23172;BME280;11754;42.664;23.594;2024-02-04T04:23:58;95733.91;;;4.85;75.47
23172;BME280;11754;42.664;23.594;2024-02-04T04:26:23;95724.16;;;4.76;75.84
23172;BME280;11754;42.664;23.594;2024-02-04T04:28:48;95728.19;;;4.91;75.67
23172;BME280;11754;42.664;23.594;2024-02-04T04:31:14;95730.91;;;4.90;75.80
23172;BME280;11754;42.664;23.594;2024-02-04T04:33:39;95736.72;;;4.93;75.49
23172;BME280;11754;42.664;23.594;2024-02-04T04:36:05;95734.63;;;4.87;76.21
23172;BME280;11754;42.664;23.594;2024-02-04T04:38:30;95746.91;;;4.96;76.24
23172;BME280;11754;42.664;23.594;2024-02-04T04:40:55;95746.22;;;4.94;76.46
23172;BME280;11754;42.664;23.594;2024-02-04T04:43:21;95745.50;;;4.92;76.71
23172;BME280;11754;42.664;23.594;2024-02-04T04:45:46;95748.56;;;4.97;76.27
23172;BME280;11754;42.664;23.594;2024-02-04T04:48:12;95754.03;;;5.05;76.16
23172;BME280;11754;42.664;23.594;2024-02-04T04:50:37;95742.47;;;5.29;75.55
23172;BME280;11754;42.664;23.594;2024-02-04T04:53:02;95736.94;;;5.43;74.45
23172;BME280;11754;42.664;23.594;2024-02-04T04:55:28;95736.91;;;5.64;73.81
23172;BME280;11754;42.664;23.594;2024-02-04T04:57:53;95745.25;;;5.79;73.40
23172;BME280;11754;42.664;23.594;2024-02-04T05:00:18;95739.63;;;6.05;72.30
23172;BME280;11754;42.664;23.594;2024-02-04T05:02:44;95738.59;;;6.17;71.75
23172;BME280;11754;42.664;23.594;2024-02-04T05:05:10;95735.94;;;5.86;72.69
23172;BME280;11754;42.664;23.594;2024-02-04T05:07:35;95741.06;;;5.67;73.67
23172;BME280;11754;42.664;23.594;2024-02-04T05:10:01;95749.56;;;5.59;73.80
23172;BME280;11754;42.664;23.594;2024-02-04T05:12:26;95738.41;;;5.88;72.63
23172;BME280;11754;42.664;23.594;2024-02-04T05:14:51;95741.97;;;6.08;72.07
23172;BME280;11754;42.664;23.594;2024-02-04T05:17:16;95738.38;;;6.09;71.24
23172;BME280;11754;42.664;23.594;2024-02-04T05:19:42;95733.59;;;6.14;71.33
23172;BME280;11754;42.664;23.594;2024-02-04T05:22:07;95736.94;;;6.25;70.42
23172;BME280;11754;42.664;23.594;2024-02-04T05:24:33;95746.06;;;6.31;70.33
23172;BME280;11754;42.664;23.594;2024-02-04T05:26:58;95753.63;;;6.24;70.03
23172;BME280;11754;42.664;23.594;2024-02-04T05:29:23;95757.03;;;5.64;72.11
23172;BME280;11754;42.664;23.594;2024-02-04T05:31:49;95764.38;;;5.49;73.24
23172;BME280;11754;42.664;23.594;2024-02-04T05:34:14;95765.97;;;5.40;73.66
23172;BME280;11754;42.664;23.594;2024-02-04T05:36:39;95754.84;;;5.69;72.91
23172;BME280;11754;42.664;23.594;2024-02-04T05:39:10;95760.06;;;5.90;72.14
23172;BME280;11754;42.664;23.594;2024-02-04T05:41:36;95758.53;;;5.87;71.41
23172;BME280;11754;42.664;23.594;2024-02-04T05:44:01;95764.56;;;5.78;71.70
23172;BME280;11754;42.664;23.594;2024-02-04T05:46:27;95761.56;;;5.62;72.81
23172;BME280;11754;42.664;23.594;2024-02-04T05:48:53;95754.09;;;5.78;72.24
23172;BME280;11754;42.664;23.594;2024-02-04T05:51:18;95759.16;;;6.00;71.85
23172;BME280;11754;42.664;23.594;2024-02-04T05:53:44;95752.66;;;6.25;70.89
23172;BME280;11754;42.664;23.594;2024-02-04T05:56:09;95750.75;;;6.37;70.01
23172;BME280;11754;42.664;23.594;2024-02-04T05:58:34;95756.88;;;6.57;69.27
23172;BME280;11754;42.664;23.594;2024-02-04T06:00:59;95761.88;;;6.70;68.67
23172;BME280;11754;42.664;23.594;2024-02-04T06:03:25;95773.19;;;6.80;67.93
23172;BME280;11754;42.664;23.594;2024-02-04T06:05:50;95757.06;;;6.85;67.61
23172;BME280;11754;42.664;23.594;2024-02-04T06:08:15;95752.22;;;6.80;67.66
23172;BME280;11754;42.664;23.594;2024-02-04T06:10:41;95761.34;;;6.95;67.15
23172;BME280;11754;42.664;23.594;2024-02-04T06:13:07;95758.72;;;6.95;67.50
23172;BME280;11754;42.664;23.594;2024-02-04T06:15:32;95760.53;;;7.05;67.18
23172;BME280;11754;42.664;23.594;2024-02-04T06:17:58;95771.31;;;7.11;66.97
23172;BME280;11754;42.664;23.594;2024-02-04T06:20:23;95769.06;;;7.07;67.33
23172;BME280;11754;42.664;23.594;2024-02-04T06:22:51;95770.59;;;6.90;67.83
23172;BME280;11754;42.664;23.594;2024-02-04T06:25:17;95772.38;;;6.80;68.43
23172;BME280;11754;42.664;23.594;2024-02-04T06:27:42;95776.25;;;6.85;68.16
23172;BME280;11754;42.664;23.594;2024-02-04T06:30:08;95774.88;;;7.01;67.42
23172;BME280;11754;42.664;23.594;2024-02-04T06:32:33;95794.50;;;6.96;67.81
23172;BME280;11754;42.664;23.594;2024-02-04T06:34:58;95785.34;;;6.91;67.87
23172;BME280;11754;42.664;23.594;2024-02-04T06:37:24;95795.59;;;7.04;67.82
23172;BME280;11754;42.664;23.594;2024-02-04T06:39:51;95797.25;;;7.24;66.85
23172;BME280;11754;42.664;23.594;2024-02-04T06:42:17;95796.44;;;7.23;66.59
23172;BME280;11754;42.664;23.594;2024-02-04T06:44:45;95806.94;;;7.33;67.19
23172;BME280;11754;42.664;23.594;2024-02-04T06:47:11;95805.00;;;7.55;66.56
23172;BME280;11754;42.664;23.594;2024-02-04T06:49:45;95816.00;;;7.78;65.48
23172;BME280;11754;42.664;23.594;2024-02-04T06:52:13;95816.81;;;7.98;64.69
23172;BME280;11754;42.664;23.594;2024-02-04T06:54:39;95811.84;;;7.94;65.10
23172;BME280;11754;42.664;23.594;2024-02-04T06:57:04;95813.38;;;7.97;64.66
23172;BME280;11754;42.664;23.594;2024-02-04T06:59:29;95817.84;;;8.24;64.23
23172;BME280;11754;42.664;23.594;2024-02-04T07:01:54;95810.94;;;8.23;63.96
23172;BME280;11754;42.664;23.594;2024-02-04T07:04:20;95811.22;;;8.20;63.80
23172;BME280;11754;42.664;23.594;2024-02-04T07:06:47;95810.34;;;8.39;63.60
23172;BME280;11754;42.664;23.594;2024-02-04T07:09:12;95807.59;;;8.68;62.83
23172;BME280;11754;42.664;23.594;2024-02-04T07:11:37;95805.78;;;8.69;62.18
23172;BME280;11754;42.664;23.594;2024-02-04T07:14:03;95818.00;;;8.60;62.49
23172;BME280;11754;42.664;23.594;2024-02-04T07:16:28;95823.44;;;8.76;62.53
23172;BME280;11754;42.664;23.594;2024-02-04T07:18:54;95821.63;;;8.59;62.69
23172;BME280;11754;42.664;23.594;2024-02-04T07:21:20;95821.47;;;8.88;61.96
23172;BME280;11754;42.664;23.594;2024-02-04T07:23:45;95809.13;;;9.16;61.14
23172;BME280;11754;42.664;23.594;2024-02-04T07:26:10;95812.72;;;9.15;60.79
23172;BME280;11754;42.664;23.594;2024-02-04T07:28:37;95817.16;;;9.50;60.54
23172;BME280;11754;42.664;23.594;2024-02-04T07:31:02;95822.91;;;9.90;59.14
23172;BME280;11754;42.664;23.594;2024-02-04T07:33:27;95815.97;;;10.06;58.31
23172;BME280;11754;42.664;23.594;2024-02-04T07:35:53;95820.25;;;10.07;58.00
23172;BME280;11754;42.664;23.594;2024-02-04T07:38:18;95812.72;;;9.95;58.01
23172;BME280;11754;42.664;23.594;2024-02-04T07:40:43;95811.50;;;10.07;58.33
23172;BME280;11754;42.664;23.594;2024-02-04T07:43:09;95815.19;;;9.70;59.01
23172;BME280;11754;42.664;23.594;2024-02-04T07:45:34;95810.00;;;9.78;58.96
23172;BME280;11754;42.664;23.594;2024-02-04T07:48:00;95811.28;;;9.74;59.47
23172;BME280;11754;42.664;23.594;2024-02-04T07:50:25;95812.94;;;10.01;58.60
23172;BME280;11754;42.664;23.594;2024-02-04T07:52:51;95814.72;;;9.93;58.40
23172;BME280;11754;42.664;23.594;2024-02-04T07:55:17;95819.19;;;9.74;58.58
23172;BME280;11754;42.664;23.594;2024-02-04T07:57:42;95815.06;;;9.36;60.39
23172;BME280;11754;42.664;23.594;2024-02-04T08:00:07;95822.34;;;9.60;59.95
23172;BME280;11754;42.664;23.594;2024-02-04T08:02:35;95814.22;;;9.71;59.71
23172;BME280;11754;42.664;23.594;2024-02-04T08:05:00;95808.75;;;9.91;59.58
23172;BME280;11754;42.664;23.594;2024-02-04T08:07:26;95802.19;;;9.95;58.92
23172;BME280;11754;42.664;23.594;2024-02-04T08:09:51;95812.75;;;9.77;59.41
23172;BME280;11754;42.664;23.594;2024-02-04T08:12:17;95819.72;;;9.60;60.13
23172;BME280;11754;42.664;23.594;2024-02-04T08:14:42;95820.00;;;9.75;60.10
23172;BME280;11754;42.664;23.594;2024-02-04T08:17:08;95821.94;;;9.91;59.67
23172;BME280;11754;42.664;23.594;2024-02-04T08:19:33;95806.28;;;9.89;59.88
23172;BME280;11754;42.664;23.594;2024-02-04T08:21:58;95800.19;;;10.15;59.19
23172;BME280;11754;42.664;23.594;2024-02-04T08:24:24;95803.09;;;10.64;58.01
23172;BME280;11754;42.664;23.594;2024-02-04T08:26:49;95797.06;;;10.71;57.51
23172;BME280;11754;42.664;23.594;2024-02-04T08:29:15;95799.31;;;11.09;56.73
23172;BME280;11754;42.664;23.594;2024-02-04T08:31:40;95797.03;;;11.30;55.50
23172;BME280;11754;42.664;23.594;2024-02-04T08:34:05;95791.75;;;11.30;55.30
23172;BME280;11754;42.664;23.594;2024-02-04T08:36:32;95798.53;;;11.49;54.84
23172;BME280;11754;42.664;23.594;2024-02-04T08:38:57;95790.97;;;11.62;54.11
23172;BME280;11754;42.664;23.594;2024-02-04T08:41:23;95792.63;;;11.88;53.46
23172;BME280;11754;42.664;23.594;2024-02-04T08:43:48;95793.25;;;11.82;53.36
23172;BME280;11754;42.664;23.594;2024-02-04T08:46:14;95798.56;;;11.73;53.71
23172;BME280;11754;42.664;23.594;2024-02-04T08:48:39;95785.34;;;11.65;54.20
23172;BME280;11754;42.664;23.594;2024-02-04T08:51:09;95788.66;;;11.51;54.47
23172;BME280;11754;42.664;23.594;2024-02-04T08:53:35;95796.22;;;11.38;54.69
23172;BME280;11754;42.664;23.594;2024-02-04T08:56:00;95795.72;;;11.42;54.57
23172;BME280;11754;42.664;23.594;2024-02-04T08:58:25;95792.13;;;11.43;54.20
23172;BME280;11754;42.664;23.594;2024-02-04T09:00:51;95797.53;;;11.34;54.93
23172;BME280;11754;42.664;23.594;2024-02-04T09:03:16;95797.53;;;11.25;54.98
23172;BME280;11754;42.664;23.594;2024-02-04T09:05:41;95790.25;;;11.27;55.19
23172;BME280;11754;42.664;23.594;2024-02-04T09:08:06;95789.50;;;11.84;54.63
23172;BME280;11754;42.664;23.594;2024-02-04T09:10:32;95783.03;;;12.03;54.19
23172;BME280;11754;42.664;23.594;2024-02-04T09:12:57;95783.38;;;12.08;53.53
23172;BME280;11754;42.664;23.594;2024-02-04T09:15:22;95787.13;;;12.78;52.77
23172;BME280;11754;42.664;23.594;2024-02-04T09:17:48;95793.63;;;13.60;49.80
23172;BME280;11754;42.664;23.594;2024-02-04T09:20:13;95791.91;;;13.67;49.03
23172;BME280;11754;42.664;23.594;2024-02-04T09:22:40;95793.22;;;13.17;50.39
23172;BME280;11754;42.664;23.594;2024-02-04T09:25:05;95787.94;;;12.22;52.20
23172;BME280;11754;42.664;23.594;2024-02-04T09:27:31;95807.72;;;12.51;51.59
23172;BME280;11754;42.664;23.594;2024-02-04T09:29:56;95813.53;;;12.38;52.18
23172;BME280;11754;42.664;23.594;2024-02-04T09:32:21;95809.03;;;12.55;52.15
23172;BME280;11754;42.664;23.594;2024-02-04T09:34:46;95803.88;;;11.98;53.32
23172;BME280;11754;42.664;23.594;2024-02-04T09:37:12;95813.06;;;11.53;54.44
23172;BME280;11754;42.664;23.594;2024-02-04T09:39:37;95816.53;;;11.29;55.50
23172;BME280;11754;42.664;23.594;2024-02-04T09:42:02;95810.78;;;11.58;55.26
23172;BME280;11754;42.664;23.594;2024-02-04T09:44:28;95810.78;;;11.66;54.81
23172;BME280;11754;42.664;23.594;2024-02-04T09:46:54;95803.66;;;11.75;54.71
23172;BME280;11754;42.664;23.594;2024-02-04T09:49:19;95803.66;;;11.67;55.23
23172;BME280;11754;42.664;23.594;2024-02-04T09:51:44;95804.50;;;11.67;55.29
23172;BME280;11754;42.664;23.594;2024-02-04T09:54:10;95803.50;;;11.44;55.21
23172;BME280;11754;42.664;23.594;2024-02-04T09:56:37;95802.53;;;11.61;55.28
23172;BME280;11754;42.664;23.594;2024-02-04T09:59:02;95796.56;;;11.67;54.65
23172;BME280;11754;42.664;23.594;2024-02-04T10:01:28;95798.53;;;12.22;53.79
23172;BME280;11754;42.664;23.594;2024-02-04T10:03:53;95789.16;;;12.67;52.54
23172;BME280;11754;42.664;23.594;2024-02-04T10:06:19;95785.81;;;12.18;53.47
23172;BME280;11754;42.664;23.594;2024-02-04T10:08:44;95780.84;;;12.31;53.71
23172;BME280;11754;42.664;23.594;2024-02-04T10:11:11;95782.09;;;12.91;51.88
23172;BME280;11754;42.664;23.594;2024-02-04T10:13:43;95775.66;;;13.25;50.74
23172;BME280;11754;42.664;23.594;2024-02-04T10:16:09;95790.81;;;12.99;51.13
23172;BME280;11754;42.664;23.594;2024-02-04T10:18:34;95768.03;;;13.21;51.14
23172;BME280;11754;42.664;23.594;2024-02-04T10:20:59;95777.41;;;13.01;50.97
23172;BME280;11754;42.664;23.594;2024-02-04T10:23:25;95783.88;;;12.98;51.03
23172;BME280;11754;42.664;23.594;2024-02-04T10:25:57;95782.00;;;12.76;51.59
23172;BME280;11754;42.664;23.594;2024-02-04T10:28:22;95776.66;;;12.45;53.16
23172;BME280;11754;42.664;23.594;2024-02-04T10:30:47;95778.94;;;12.56;53.12
23172;BME280;11754;42.664;23.594;2024-02-04T10:33:13;95778.31;;;12.46;52.99
23172;BME280;11754;42.664;23.594;2024-02-04T10:35:38;95777.97;;;12.49;53.23
23172;BME280;11754;42.664;23.594;2024-02-04T10:38:03;95770.00;;;12.57;53.34
23172;BME280;11754;42.664;23.594;2024-02-04T10:40:28;95773.31;;;12.59;53.39
23172;BME280;11754;42.664;23.594;2024-02-04T10:42:55;95774.72;;;12.31;53.61
23172;BME280;11754;42.664;23.594;2024-02-04T10:45:23;95772.69;;;12.49;53.45
23172;BME280;11754;42.664;23.594;2024-02-04T10:47:52;95782.97;;;12.36;53.62
23172;BME280;11754;42.664;23.594;2024-02-04T10:50:20;95779.22;;;11.81;55.45
23172;BME280;11754;42.664;23.594;2024-02-04T10:52:47;95770.63;;;11.79;55.51
23172;BME280;11754;42.664;23.594;2024-02-04T10:55:14;95779.72;;;11.60;56.17
23172;BME280;11754;42.664;23.594;2024-02-04T10:57:40;95773.44;;;11.77;56.36
23172;BME280;11754;42.664;23.594;2024-02-04T11:00:06;95777.75;;;11.54;56.43
23172;BME280;11754;42.664;23.594;2024-02-04T11:02:36;95780.38;;;11.78;56.03
23172;BME280;11754;42.664;23.594;2024-02-04T11:05:02;95771.81;;;11.93;55.70
23172;BME280;11754;42.664;23.594;2024-02-04T11:07:30;95763.19;;;12.07;55.09
23172;BME280;11754;42.664;23.594;2024-02-04T11:09:57;95759.13;;;12.44;54.75
23172;BME280;11754;42.664;23.594;2024-02-04T11:12:22;95760.72;;;12.61;53.76
23172;BME280;11754;42.664;23.594;2024-02-04T11:14:49;95762.97;;;12.81;52.98
23172;BME280;11754;42.664;23.594;2024-02-04T11:19:47;95744.88;;;13.24;52.09
23172;BME280;11754;42.664;23.594;2024-02-04T11:25:26;95745.09;;;13.37;50.61
23172;BME280;11754;42.664;23.594;2024-02-04T11:27:57;95734.34;;;13.07;51.04
23172;BME280;11754;42.664;23.594;2024-02-04T11:30:22;95731.28;;;13.18;51.02
23172;BME280;11754;42.664;23.594;2024-02-04T11:32:48;95733.56;;;14.05;49.23
23172;BME280;11754;42.664;23.594;2024-02-04T11:35:13;95729.28;;;14.19;48.43
23172;BME280;11754;42.664;23.594;2024-02-04T11:37:38;95724.47;;;15.46;45.66
23172;BME280;11754;42.664;23.594;2024-02-04T11:40:07;95710.41;;;15.09;45.58
23172;BME280;11754;42.664;23.594;2024-02-04T11:42:32;95724.16;;;14.77;46.28
23172;BME280;11754;42.664;23.594;2024-02-04T11:45:08;95726.81;;;14.47;47.30
23172;BME280;11754;42.664;23.594;2024-02-04T11:47:33;95722.25;;;14.11;47.81
23172;BME280;11754;42.664;23.594;2024-02-04T11:50:00;95715.09;;;13.59;49.28
23172;BME280;11754;42.664;23.594;2024-02-04T11:52:28;95722.03;;;13.45;50.06
23172;BME280;11754;42.664;23.594;2024-02-04T11:54:54;95721.03;;;13.15;50.40
23172;BME280;11754;42.664;23.594;2024-02-04T11:57:19;95722.13;;;13.06;51.13
23172;BME280;11754;42.664;23.594;2024-02-04T11:59:45;95715.63;;;13.09;51.33
23172;BME280;11754;42.664;23.594;2024-02-04T12:02:11;95711.28;;;14.14;49.01
23172;BME280;11754;42.664;23.594;2024-02-04T12:04:37;95706.97;;;14.28;47.57
23172;BME280;11754;42.664;23.594;2024-02-04T12:07:04;95704.56;;;13.51;48.97
23172;BME280;11754;42.664;23.594;2024-02-04T12:09:30;95705.50;;;13.58;49.50
23172;BME280;11754;42.664;23.594;2024-02-04T12:11:56;95712.00;;;13.33;49.17
23172;BME280;11754;42.664;23.594;2024-02-04T12:14:22;95693.03;;;13.67;48.92
23172;BME280;11754;42.664;23.594;2024-02-04T12:16:47;95696.78;;;14.02;47.55
23172;BME280;11754;42.664;23.594;2024-02-04T12:19:13;95702.63;;;13.68;48.43
23172;BME280;11754;42.664;23.594;2024-02-04T12:21:38;95700.38;;;13.42;49.37
23172;BME280;11754;42.664;23.594;2024-02-04T12:24:04;95694.13;;;13.35;49.48
23172;BME280;11754;42.664;23.594;2024-02-04T12:26:29;95692.56;;;13.17;49.95
23172;BME280;11754;42.664;23.594;2024-02-04T12:28:55;95680.53;;;12.84;50.49
23172;BME280;11754;42.664;23.594;2024-02-04T12:31:21;95685.94;;;12.67;50.18
23172;BME280;11754;42.664;23.594;2024-02-04T12:33:56;95685.66;;;12.62;50.27
23172;BME280;11754;42.664;23.594;2024-02-04T12:36:28;95673.72;;;12.66;49.79
23172;BME280;11754;42.664;23.594;2024-02-04T12:38:54;95683.34;;;12.59;50.68
23172;BME280;11754;42.664;23.594;2024-02-04T12:41:20;95671.47;;;12.78;50.16
23172;BME280;11754;42.664;23.594;2024-02-04T12:44:03;95651.59;;;13.05;49.99
23172;BME280;11754;42.664;23.594;2024-02-04T12:46:30;95659.00;;;16.23;42.92
23172;BME280;11754;42.664;23.594;2024-02-04T12:48:56;95654.44;;;17.26;39.73
23172;BME280;11754;42.664;23.594;2024-02-04T12:51:25;95656.50;;;15.80;41.98
23172;BME280;11754;42.664;23.594;2024-02-04T12:54:01;95647.69;;;15.30;43.34
23172;BME280;11754;42.664;23.594;2024-02-04T12:56:26;95660.19;;;14.72;44.42
23172;BME280;11754;42.664;23.594;2024-02-04T12:58:51;95667.38;;;13.97;46.01
23172;BME280;11754;42.664;23.594;2024-02-04T13:01:17;95650.19;;;13.93;46.32
23172;BME280;11754;42.664;23.594;2024-02-04T13:03:42;95652.56;;;14.17;45.98